Time;durP1;ratioP1;P1;durP2;ratioP2;P2;SDS_P1;SDS_P2;PMS_P1;PMS_P2;Temp;Humidity;BMP_temperature;BMP_pressure;BME280_temperature;BME280_humidity;BME280_pressure;Samples;Min_cycle;Max_cycle;Signal;HPM_P1;HPM_P2
2023/01/24 00:00:06;;;;;;;22.33;13.27;;;2.90;99.90;;;;;;5043282;28;20219;-81
2023/01/24 00:02:36;;;;;;;22.47;14.17;;;2.90;99.90;;;;;;5043297;28;20227;-81
2023/01/24 00:05:02;;;;;;;22.33;12.90;;;2.90;99.90;;;;;;5024275;28;20220;-81
2023/01/24 00:07:29;;;;;;;23.63;13.10;;;2.90;99.90;;;;;;5040798;28;20259;-81
2023/01/24 00:09:56;;;;;;;22.97;13.27;;;2.90;99.90;;;;;;5041732;28;20219;-82
2023/01/24 00:12:22;;;;;;;23.03;12.97;;;2.80;99.90;;;;;;5024800;28;20316;-81
2023/01/24 00:14:49;;;;;;;24.50;14.23;;;2.80;99.90;;;;;;5025050;28;20230;-81
2023/01/24 00:17:16;;;;;;;22.87;13.00;;;2.80;99.90;;;;;;5024085;28;20813;-82
2023/01/24 00:19:44;;;;;;;21.87;13.37;;;2.80;99.90;;;;;;5042406;28;20818;-82
2023/01/24 00:22:10;;;;;;;21.87;13.40;;;2.80;99.90;;;;;;5023924;28;20252;-82
2023/01/24 00:24:37;;;;;;;22.33;12.73;;;2.80;99.90;;;;;;5043171;28;20895;-82
2023/01/24 00:27:04;;;;;;;19.97;13.23;;;2.80;99.90;;;;;;5041602;28;20236;-82
2023/01/24 00:29:31;;;;;;;27.20;13.83;;;2.80;99.90;;;;;;5040832;28;20230;-82
2023/01/24 00:31:57;;;;;;;21.50;13.30;;;2.80;99.90;;;;;;5024261;28;20253;-81
2023/01/24 00:34:24;;;;;;;24.60;13.17;;;2.80;99.90;;;;;;5024341;28;20753;-82
2023/01/24 00:36:52;;;;;;;21.67;12.77;;;2.80;99.90;;;;;;5024678;28;20323;-81
2023/01/24 00:39:19;;;;;;;21.67;13.37;;;2.80;99.90;;;;;;5032785;28;20224;-82
2023/01/24 00:41:45;;;;;;;21.77;13.37;;;2.80;99.90;;;;;;5021713;28;20308;-81
2023/01/24 00:44:13;;;;;;;22.97;13.70;;;2.80;99.90;;;;;;5021217;28;20712;-81
2023/01/24 00:46:40;;;;;;;20.47;13.13;;;2.80;99.90;;;;;;5022810;28;20260;-81
2023/01/24 00:49:07;;;;;;;22.30;13.43;;;2.80;99.90;;;;;;5041320;28;20224;-82
2023/01/24 00:51:35;;;;;;;22.17;13.43;;;2.80;99.90;;;;;;5037132;28;20217;-82
2023/01/24 00:54:04;;;;;;;24.63;14.77;;;2.90;99.90;;;;;;5029558;28;20278;-81
2023/01/24 00:56:31;;;;;;;20.77;13.30;;;2.90;99.90;;;;;;5041679;28;20693;-81
2023/01/24 00:58:58;;;;;;;24.10;14.03;;;2.90;99.90;;;;;;5025956;28;21191;-81
2023/01/24 01:01:25;;;;;;;24.37;14.23;;;2.90;99.90;;;;;;5040442;28;20236;-81
2023/01/24 01:03:55;;;;;;;21.13;13.63;;;2.90;99.90;;;;;;5038946;28;20223;-81
2023/01/24 01:06:22;;;;;;;23.13;13.43;;;2.90;99.90;;;;;;5039079;28;20868;-81
2023/01/24 01:08:49;;;;;;;25.37;14.60;;;2.80;99.90;;;;;;5022496;28;20879;-81
2023/01/24 01:11:17;;;;;;;22.53;14.20;;;2.90;99.90;;;;;;5037510;28;20594;-81
2023/01/24 01:13:47;;;;;;;21.07;13.43;;;2.90;99.90;;;;;;5033814;28;21749;-82
2023/01/24 01:16:17;;;;;;;20.87;12.87;;;2.90;99.90;;;;;;5039371;28;20224;-81
2023/01/24 01:18:45;;;;;;;20.73;13.30;;;2.90;99.90;;;;;;5022714;28;20237;-83
2023/01/24 01:21:13;;;;;;;23.60;14.17;;;2.90;99.90;;;;;;5019995;28;20227;-82
2023/01/24 01:23:40;;;;;;;22.37;13.20;;;2.90;99.90;;;;;;5038353;28;20296;-82
2023/01/24 01:26:09;;;;;;;25.53;14.30;;;2.90;99.90;;;;;;5036677;28;20220;-82
2023/01/24 01:28:37;;;;;;;25.23;13.87;;;2.90;99.90;;;;;;5023347;28;20220;-82
2023/01/24 01:31:04;;;;;;;24.23;13.77;;;2.90;99.90;;;;;;5021860;28;20220;-82
2023/01/24 01:33:31;;;;;;;22.63;13.17;;;2.90;99.90;;;;;;5033009;28;20226;-82
2023/01/24 01:35:58;;;;;;;22.80;13.50;;;2.80;99.90;;;;;;5036737;28;20268;-81
2023/01/24 01:38:27;;;;;;;23.90;14.20;;;2.90;99.90;;;;;;5036162;28;20237;-82
2023/01/24 01:40:54;;;;;;;24.47;13.20;;;2.80;99.90;;;;;;5038872;28;20217;-81
2023/01/24 01:43:23;;;;;;;21.67;13.13;;;2.90;99.90;;;;;;5040222;28;20224;-81
2023/01/24 01:45:53;;;;;;;22.80;13.97;;;2.90;99.90;;;;;;5041185;28;20288;-82
2023/01/24 01:48:25;;;;;;;21.33;13.40;;;2.90;99.90;;;;;;5039432;28;20247;-81
2023/01/24 01:50:59;;;;;;;23.33;13.40;;;2.90;99.90;;;;;;5035694;28;20221;-82
2023/01/24 01:53:29;;;;;;;23.27;13.33;;;2.80;99.90;;;;;;5036080;28;20260;-82
2023/01/24 01:56:01;;;;;;;23.50;14.30;;;2.80;99.90;;;;;;5041809;28;21000;-82
2023/01/24 01:58:28;;;;;;;23.17;13.07;;;2.80;99.90;;;;;;5032924;28;20236;-82
2023/01/24 02:00:57;;;;;;;21.63;11.97;;;2.90;99.90;;;;;;5034453;28;20213;-82
2023/01/24 02:03:40;;;;;;;22.23;13.20;;;2.80;99.90;;;;;;5039040;28;20333;-81
2023/01/24 02:06:13;;;;;;;27.90;14.10;;;2.80;99.90;;;;;;5038160;28;20288;-81
2023/01/24 02:08:42;;;;;;;21.70;13.30;;;2.80;99.90;;;;;;5040740;28;20247;-81
2023/01/24 02:16:02;;;;;;;23.20;13.57;;;2.80;99.90;;;;;;5017380;28;20767;-83
2023/01/24 02:16:42;;;;;;;22.37;12.83;;;2.80;99.90;;;;;;5034279;28;20319;-82
2023/01/24 02:19:19;;;;;;;23.83;14.13;;;2.80;99.90;;;;;;5038598;28;20233;-81
2023/01/24 02:21:47;;;;;;;22.80;13.90;;;2.70;99.90;;;;;;5022646;28;20223;-82
2023/01/24 02:24:24;;;;;;;22.63;13.70;;;2.90;99.90;;;;;;5036881;28;20622;-83
2023/01/24 02:26:52;;;;;;;22.77;13.30;;;2.80;99.90;;;;;;5018796;28;20318;-81
2023/01/24 02:29:18;;;;;;;24.10;13.50;;;2.80;99.90;;;;;;5037235;28;20240;-81
2023/01/24 02:32:00;;;;;;;25.43;14.07;;;2.80;99.90;;;;;;5018487;28;20238;-81
2023/01/24 02:34:28;;;;;;;21.67;12.83;;;2.80;99.90;;;;;;5033738;28;20228;-81
2023/01/24 02:36:59;;;;;;;20.23;12.67;;;2.80;99.90;;;;;;5021576;28;20238;-81
2023/01/24 02:39:30;;;;;;;21.57;12.93;;;2.80;99.90;;;;;;5040378;28;21352;-80
2023/01/24 02:42:02;;;;;;;23.57;13.27;;;2.80;99.90;;;;;;5021297;28;20252;-81
2023/01/24 02:44:35;;;;;;;23.97;13.30;;;2.80;99.90;;;;;;5035513;28;20257;-81
2023/01/24 02:47:03;;;;;;;23.07;13.30;;;2.70;99.90;;;;;;5035405;28;20227;-81
2023/01/24 02:49:30;;;;;;;22.03;12.77;;;2.70;99.90;;;;;;5038670;28;20297;-82
2023/01/24 02:54:42;;;;;;;21.60;13.10;;;2.70;99.90;;;;;;5037995;28;20223;-82
2023/01/24 02:59:57;;;;;;;23.90;13.50;;;2.70;99.90;;;;;;5023899;28;20246;-81
2023/01/24 03:02:26;;;;;;;24.07;13.37;;;2.70;99.90;;;;;;5036770;28;20232;-81
2023/01/24 03:04:52;;;;;;;23.70;13.27;;;2.70;99.90;;;;;;5031216;28;20235;-81
2023/01/24 03:07:19;;;;;;;23.23;13.50;;;2.70;99.90;;;;;;5022639;28;20293;-81
2023/01/24 03:09:52;;;;;;;21.53;12.50;;;2.70;99.90;;;;;;5036369;28;20300;-81
2023/01/24 03:34:30;;;;;;;24.83;13.40;;;2.60;99.90;;;;;;5036571;28;20244;-80
2023/01/24 03:36:56;;;;;;;20.10;12.53;;;2.60;99.90;;;;;;5022164;28;20239;-81
2023/01/24 03:42:08;;;;;;;22.40;13.20;;;2.60;99.90;;;;;;5043989;28;20367;-81
2023/01/24 03:44:36;;;;;;;19.03;12.43;;;2.60;99.90;;;;;;5023535;28;20231;-81
2023/01/24 03:47:03;;;;;;;21.47;12.80;;;2.60;99.90;;;;;;5039945;28;20235;-84
2023/01/24 03:52:28;;;;;;;20.03;12.67;;;2.60;99.90;;;;;;5035151;28;20339;-84
2023/01/24 03:54:55;;;;;;;18.00;10.67;;;2.60;99.90;;;;;;5038384;28;20905;-83
2023/01/24 03:57:22;;;;;;;17.73;11.60;;;2.60;99.90;;;;;;5034131;28;22080;-83
2023/01/24 03:59:52;;;;;;;20.53;11.33;;;2.60;99.90;;;;;;5024014;28;20224;-83
2023/01/24 04:02:21;;;;;;;18.17;10.87;;;2.60;99.90;;;;;;5039998;28;20815;-84
2023/01/24 04:07:33;;;;;;;20.63;12.27;;;2.60;99.90;;;;;;5043131;28;20216;-81
2023/01/24 04:10:04;;;;;;;13.57;7.97;;;2.60;99.90;;;;;;5040373;28;20312;-82
2023/01/24 04:12:37;;;;;;;15.17;8.07;;;2.60;99.90;;;;;;5024037;28;20223;-83
2023/01/24 04:15:07;;;;;;;20.00;12.83;;;2.60;99.90;;;;;;5043418;28;20216;-82
2023/01/24 04:17:34;;;;;;;49.70;30.53;;;2.60;99.90;;;;;;5017632;28;20216;-82
2023/01/24 04:20:04;;;;;;;35.50;21.53;;;2.60;99.90;;;;;;5027752;28;20239;-83
2023/01/24 04:22:31;;;;;;;21.30;12.33;;;2.50;99.90;;;;;;5039510;28;20224;-84
2023/01/24 04:25:00;;;;;;;21.30;13.60;;;2.60;99.90;;;;;;5041809;28;20218;-83
2023/01/24 04:27:31;;;;;;;28.80;18.03;;;2.60;99.90;;;;;;5021511;28;20236;-83
2023/01/24 04:30:11;;;;;;;19.13;11.50;;;2.60;99.90;;;;;;5040974;28;20224;-82
2023/01/24 04:32:40;;;;;;;21.37;11.97;;;2.60;99.90;;;;;;5040018;28;20311;-83
2023/01/24 04:35:17;;;;;;;18.63;11.17;;;2.60;99.90;;;;;;5032210;28;20332;-82
2023/01/24 04:37:53;;;;;;;18.23;11.50;;;2.60;99.90;;;;;;5036452;28;20235;-83
2023/01/24 04:40:33;;;;;;;19.20;11.50;;;2.50;99.90;;;;;;5039710;28;20311;-83
2023/01/24 04:43:00;;;;;;;17.40;10.53;;;2.60;99.90;;;;;;5023246;28;20211;-84
2023/01/24 04:45:28;;;;;;;22.60;11.77;;;2.60;99.90;;;;;;5039681;28;20230;-83
2023/01/24 04:47:56;;;;;;;18.80;10.93;;;2.60;99.90;;;;;;5023008;28;20318;-83
2023/01/24 04:50:24;;;;;;;18.20;11.20;;;2.60;99.90;;;;;;5036128;28;20232;-82
2023/01/24 04:52:52;;;;;;;18.10;10.60;;;2.60;99.90;;;;;;5022270;28;20220;-83
2023/01/24 04:55:18;;;;;;;17.80;10.23;;;2.60;99.90;;;;;;5036302;28;20219;-83
2023/01/24 04:57:45;;;;;;;18.27;11.80;;;2.60;99.90;;;;;;5037676;28;20232;-83
2023/01/24 05:00:12;;;;;;;11.07;7.90;;;2.60;99.90;;;;;;5035682;28;20588;-83
2023/01/24 05:02:40;;;;;;;6.70;4.67;;;2.60;99.90;;;;;;5020671;28;20239;-83
2023/01/24 05:05:09;;;;;;;9.50;4.43;;;2.60;99.90;;;;;;5024805;28;20220;-83
2023/01/24 05:07:36;;;;;;;6.80;4.27;;;2.60;99.90;;;;;;5035058;28;20625;-82
2023/01/24 05:10:09;;;;;;;7.80;4.17;;;2.50;99.90;;;;;;5020405;28;20282;-84
2023/01/24 05:12:37;;;;;;;7.23;4.40;;;2.50;99.90;;;;;;5025974;28;20290;-83
2023/01/24 05:15:10;;;;;;;7.97;4.70;;;2.50;99.90;;;;;;5021668;28;20226;-82
2023/01/24 05:17:37;;;;;;;9.60;5.90;;;2.50;99.90;;;;;;5037951;28;20906;-84
2023/01/24 05:20:06;;;;;;;10.47;6.70;;;2.50;99.90;;;;;;5037426;28;21081;-82
2023/01/24 05:22:33;;;;;;;13.53;7.80;;;2.50;99.90;;;;;;5035708;28;20220;-81
2023/01/24 05:25:00;;;;;;;13.17;7.87;;;2.50;99.90;;;;;;5032935;28;20823;-80
2023/01/24 05:27:26;;;;;;;12.23;7.63;;;2.50;99.90;;;;;;5042573;28;20247;-80
2023/01/24 05:29:58;;;;;;;11.20;5.10;;;2.50;99.90;;;;;;5037719;28;20843;-80
2023/01/24 05:32:25;;;;;;;8.47;5.47;;;2.50;99.90;;;;;;5032650;28;20319;-80
2023/01/24 05:34:52;;;;;;;8.73;5.53;;;2.50;99.90;;;;;;5036470;28;20841;-78
2023/01/24 05:37:20;;;;;;;7.67;4.70;;;2.60;99.90;;;;;;5036103;28;20228;-79
2023/01/24 05:39:47;;;;;;;8.03;4.93;;;2.50;99.90;;;;;;5021215;28;20226;-79
2023/01/24 05:42:14;;;;;;;8.97;4.67;;;2.50;99.90;;;;;;5020415;28;20217;-80
2023/01/24 05:44:44;;;;;;;8.07;5.60;;;2.50;99.90;;;;;;5022975;28;20998;-80
2023/01/24 05:47:12;;;;;;;10.43;6.47;;;2.50;99.90;;;;;;5022199;28;20564;-81
2023/01/24 05:49:41;;;;;;;9.27;6.33;;;2.60;99.90;;;;;;5043722;28;20223;-80
2023/01/24 05:52:20;;;;;;;9.57;6.57;;;2.60;99.90;;;;;;5037287;28;20287;-80
2023/01/24 05:54:53;;;;;;;8.17;5.43;;;2.60;99.90;;;;;;5024701;28;20281;-80
2023/01/24 05:57:28;;;;;;;8.77;6.10;;;2.60;99.90;;;;;;5037009;28;20237;-80
2023/01/24 06:00:19;;;;;;;8.90;5.53;;;2.60;99.90;;;;;;5035149;28;20298;-80
2023/01/24 06:03:05;;;;;;;10.10;6.47;;;2.60;99.90;;;;;;5044676;28;20245;-82
2023/01/24 06:05:32;;;;;;;9.77;6.10;;;2.60;99.90;;;;;;5041273;28;20299;-80
2023/01/24 06:07:59;;;;;;;8.90;6.13;;;2.60;99.90;;;;;;5035655;28;20318;-80
2023/01/24 06:10:28;;;;;;;8.90;6.23;;;2.60;99.90;;;;;;5022803;28;20221;-80
2023/01/24 06:13:02;;;;;;;9.67;6.20;;;2.60;99.90;;;;;;5036549;28;20229;-80
2023/01/24 06:15:29;;;;;;;12.40;6.80;;;2.60;99.90;;;;;;5033637;28;20234;-80
2023/01/24 06:17:57;;;;;;;9.60;6.27;;;2.60;99.90;;;;;;5037142;28;20232;-80
2023/01/24 06:20:24;;;;;;;9.93;6.40;;;2.60;99.90;;;;;;5015398;28;20262;-80
2023/01/24 06:22:54;;;;;;;11.07;6.57;;;2.60;99.90;;;;;;5020603;28;20302;-80
2023/01/24 06:25:25;;;;;;;11.63;6.33;;;2.60;99.90;;;;;;5043747;28;20216;-81
2023/01/24 06:27:53;;;;;;;9.90;7.30;;;2.60;99.90;;;;;;5043828;28;20220;-80
2023/01/24 06:30:21;;;;;;;10.47;6.70;;;2.70;99.90;;;;;;5042161;28;20223;-80
2023/01/24 06:33:07;;;;;;;11.90;7.83;;;2.70;99.90;;;;;;5022473;28;20298;-80
2023/01/24 06:35:40;;;;;;;11.03;6.87;;;2.60;99.90;;;;;;5026992;28;20230;-80
2023/01/24 06:38:19;;;;;;;12.20;6.60;;;2.70;99.90;;;;;;5041617;28;20231;-80
2023/01/24 06:40:46;;;;;;;10.50;6.67;;;2.70;99.90;;;;;;5041486;28;20220;-80
2023/01/24 06:43:17;;;;;;;13.17;7.20;;;2.60;99.90;;;;;;5026653;28;20276;-80
2023/01/24 06:45:44;;;;;;;9.23;6.00;;;2.60;99.90;;;;;;5049850;28;20390;-80
2023/01/24 06:48:11;;;;;;;10.87;6.53;;;2.60;99.90;;;;;;5040950;28;20224;-80
2023/01/24 06:50:37;;;;;;;11.77;7.47;;;2.60;99.90;;;;;;5041299;28;20223;-80
2023/01/24 06:53:04;;;;;;;12.37;7.13;;;2.60;99.90;;;;;;5036178;28;20309;-80
2023/01/24 06:55:31;;;;;;;12.40;6.57;;;2.60;99.90;;;;;;5023800;28;20224;-79
2023/01/24 06:57:59;;;;;;;10.07;6.70;;;2.60;99.90;;;;;;5040032;28;20228;-80
2023/01/24 07:00:29;;;;;;;9.57;6.67;;;2.60;99.90;;;;;;5040552;28;20231;-80
2023/01/24 07:02:59;;;;;;;10.23;6.57;;;2.60;99.90;;;;;;5019050;28;20231;-80
2023/01/24 07:05:26;;;;;;;9.83;5.70;;;2.60;99.90;;;;;;5029905;28;20231;-80
2023/01/24 07:07:53;;;;;;;8.40;5.60;;;2.60;99.90;;;;;;5031034;28;20234;-80
2023/01/24 07:10:21;;;;;;;9.27;5.50;;;2.60;99.90;;;;;;5025362;28;20939;-80
2023/01/24 07:12:48;;;;;;;8.37;5.33;;;2.60;99.90;;;;;;5039890;28;20213;-80
2023/01/24 07:15:14;;;;;;;7.50;5.00;;;2.60;99.90;;;;;;5046082;28;20711;-79
2023/01/24 07:17:45;;;;;;;15.13;9.80;;;2.50;99.90;;;;;;5041855;28;20231;-80
2023/01/24 07:20:13;;;;;;;24.83;15.13;;;2.50;99.90;;;;;;5035803;28;20228;-80
2023/01/24 07:22:42;;;;;;;14.83;9.40;;;2.40;99.90;;;;;;5043377;28;20231;-80
2023/01/24 07:25:14;;;;;;;8.70;5.70;;;2.40;99.90;;;;;;5044204;28;20224;-80
2023/01/24 07:27:41;;;;;;;8.20;5.77;;;2.40;99.90;;;;;;5046790;28;20220;-80
2023/01/24 07:30:09;;;;;;;10.37;6.37;;;2.40;99.90;;;;;;5053442;28;20226;-83
2023/01/24 07:32:36;;;;;;;9.20;5.93;;;2.30;99.90;;;;;;5022242;28;20217;-84
2023/01/24 07:35:05;;;;;;;8.83;5.20;;;2.30;99.90;;;;;;5037972;28;20266;-83
2023/01/24 07:37:35;;;;;;;10.47;5.80;;;2.30;99.90;;;;;;5044666;28;20229;-84
2023/01/24 07:40:02;;;;;;;8.13;5.93;;;2.30;99.90;;;;;;5028913;28;20254;-83
2023/01/24 07:42:29;;;;;;;9.30;6.20;;;2.40;99.90;;;;;;5031076;28;20231;-82
2023/01/24 07:44:56;;;;;;;7.23;5.57;;;2.40;99.90;;;;;;5041657;28;20220;-83
2023/01/24 07:47:24;;;;;;;9.23;6.20;;;2.40;99.90;;;;;;5043964;28;20231;-84
2023/01/24 07:49:53;;;;;;;10.87;5.97;;;2.40;99.90;;;;;;5028415;28;20227;-84
2023/01/24 07:52:24;;;;;;;8.50;5.40;;;2.40;99.90;;;;;;5026967;28;20797;-84
2023/01/24 07:54:51;;;;;;;9.37;5.50;;;2.50;99.90;;;;;;5033691;28;20661;-84
2023/01/24 07:57:20;;;;;;;10.03;6.63;;;2.50;99.90;;;;;;5041313;28;20868;-84
2023/01/24 07:59:47;;;;;;;11.13;6.13;;;2.50;99.90;;;;;;5027739;28;20224;-84
2023/01/24 08:02:13;;;;;;;10.70;5.77;;;2.50;99.90;;;;;;5039885;28;20216;-85
2023/01/24 08:04:43;;;;;;;8.40;5.97;;;2.50;99.90;;;;;;5037618;28;20221;-82
2023/01/24 08:07:18;;;;;;;10.50;5.13;;;2.50;99.90;;;;;;5027796;28;20959;-84
2023/01/24 08:09:50;;;;;;;8.40;5.07;;;2.50;99.90;;;;;;5020559;28;20566;-83
2023/01/24 08:12:17;;;;;;;9.07;4.90;;;2.40;99.90;;;;;;5041120;28;20234;-84
2023/01/24 08:14:44;;;;;;;13.87;8.37;;;2.40;99.90;;;;;;5027737;28;20226;-84
2023/01/24 08:17:11;;;;;;;9.60;5.93;;;2.40;99.90;;;;;;5034428;28;20620;-84
2023/01/24 08:19:39;;;;;;;12.33;5.67;;;2.40;99.90;;;;;;5036911;28;20222;-80
2023/01/24 08:22:08;;;;;;;9.90;6.40;;;2.30;99.90;;;;;;5029321;28;20854;-79
2023/01/24 08:24:35;;;;;;;13.10;6.70;;;2.30;99.90;;;;;;5047053;28;20319;-80
2023/01/24 08:27:05;;;;;;;8.33;6.10;;;2.30;99.90;;;;;;5046340;28;20286;-80
2023/01/24 08:29:32;;;;;;;10.03;5.97;;;2.30;99.90;;;;;;5046278;28;20235;-80
2023/01/24 08:31:59;;;;;;;8.80;5.73;;;2.30;99.90;;;;;;5046030;28;20232;-80
2023/01/24 08:34:28;;;;;;;8.73;5.97;;;2.30;99.90;;;;;;5045985;28;20282;-80
2023/01/24 08:36:56;;;;;;;7.87;5.80;;;2.40;99.90;;;;;;5049714;28;20831;-80
2023/01/24 08:39:22;;;;;;;10.40;6.30;;;2.40;99.90;;;;;;5046093;28;20223;-79
2023/01/24 08:41:49;;;;;;;10.30;6.60;;;2.50;99.90;;;;;;5026107;28;20646;-80
2023/01/24 08:44:18;;;;;;;9.53;5.70;;;2.50;99.90;;;;;;5021892;28;20306;-80
2023/01/24 08:46:45;;;;;;;8.03;5.80;;;2.50;99.90;;;;;;5028392;28;20229;-80
2023/01/24 08:49:12;;;;;;;8.17;5.30;;;2.60;99.90;;;;;;5045825;28;20307;-80
2023/01/24 08:51:40;;;;;;;9.83;6.17;;;2.60;99.90;;;;;;5045218;28;20232;-80
2023/01/24 08:54:07;;;;;;;8.03;6.33;;;2.60;99.90;;;;;;5041042;28;20216;-81
2023/01/24 08:56:35;;;;;;;11.93;6.37;;;2.60;99.90;;;;;;5045504;28;20230;-80
2023/01/24 08:59:01;;;;;;;9.57;5.87;;;2.70;99.90;;;;;;5028336;28;20228;-80
2023/01/24 09:01:31;;;;;;;9.70;6.53;;;2.70;99.90;;;;;;5044389;28;20305;-80
2023/01/24 09:04:02;;;;;;;8.30;6.40;;;2.70;99.90;;;;;;5036212;28;20212;-79
2023/01/24 09:06:29;;;;;;;9.63;5.70;;;2.70;99.90;;;;;;5045669;28;20237;-80
2023/01/24 09:08:55;;;;;;;7.83;5.53;;;2.70;99.90;;;;;;5046152;28;20727;-80
2023/01/24 09:11:23;;;;;;;8.37;5.60;;;2.80;99.90;;;;;;5039884;28;20256;-80
2023/01/24 09:13:49;;;;;;;10.73;5.90;;;2.80;99.90;;;;;;5026326;28;20282;-80
2023/01/24 09:16:16;;;;;;;7.50;5.53;;;2.80;99.90;;;;;;5043827;28;20231;-80
2023/01/24 09:18:46;;;;;;;10.83;6.10;;;2.80;99.90;;;;;;5044018;28;20221;-80
2023/01/24 09:21:12;;;;;;;12.53;8.07;;;2.80;99.90;;;;;;5042834;28;20220;-80
2023/01/24 09:23:39;;;;;;;9.13;6.30;;;2.80;99.90;;;;;;5039009;28;20318;-80
2023/01/24 09:26:06;;;;;;;11.07;6.90;;;2.80;99.90;;;;;;5043352;28;20228;-80
2023/01/24 09:28:35;;;;;;;9.03;6.73;;;2.80;99.90;;;;;;5044391;28;20216;-80
2023/01/24 09:31:04;;;;;;;8.53;6.07;;;2.80;99.90;;;;;;5038395;28;21025;-80
2023/01/24 09:33:31;;;;;;;8.37;6.23;;;2.90;99.90;;;;;;5034229;28;20237;-80
2023/01/24 09:36:03;;;;;;;8.20;6.10;;;2.90;99.90;;;;;;5042368;28;20259;-80
2023/01/24 09:38:31;;;;;;;9.47;6.37;;;2.90;99.90;;;;;;5042325;28;20228;-81
2023/01/24 09:41:11;;;;;;;10.63;6.97;;;2.90;99.90;;;;;;5039136;28;20992;-80
2023/01/24 09:43:44;;;;;;;11.00;7.20;;;2.90;99.90;;;;;;5042877;28;20609;-80
2023/01/24 09:46:23;;;;;;;9.47;6.80;;;2.90;99.90;;;;;;5037443;28;20230;-80
2023/01/24 09:48:58;;;;;;;10.37;7.17;;;2.90;99.90;;;;;;5042582;28;20258;-80
2023/01/24 09:51:31;;;;;;;9.27;7.30;;;2.90;99.90;;;;;;5040268;28;20220;-80
2023/01/24 09:54:02;;;;;;;12.97;7.87;;;2.90;99.90;;;;;;5044149;28;20216;-80
2023/01/24 09:56:37;;;;;;;9.40;6.87;;;2.90;99.90;;;;;;5020076;28;20227;-80
2023/01/24 09:59:14;;;;;;;9.47;7.00;;;2.90;99.90;;;;;;5018813;28;20223;-80
2023/01/24 10:01:41;;;;;;;9.07;6.73;;;2.90;99.90;;;;;;5039579;28;20771;-81
2023/01/24 10:04:17;;;;;;;9.47;6.47;;;2.90;99.90;;;;;;5026369;28;20228;-81
2023/01/24 10:07:06;;;;;;;8.17;6.00;;;2.90;99.90;;;;;;5018714;28;20227;-80
2023/01/24 10:09:44;;;;;;;8.00;5.57;;;3.00;99.90;;;;;;5022242;28;20232;-80
2023/01/24 10:12:24;;;;;;;7.07;5.37;;;3.00;99.90;;;;;;5042652;28;20865;-79
2023/01/24 10:15:13;;;;;;;8.63;6.00;;;3.00;99.90;;;;;;5027915;28;20216;-79
2023/01/24 10:17:54;;;;;;;10.37;6.83;;;3.10;99.90;;;;;;5043764;28;20246;-79
2023/01/24 10:20:46;;;;;;;8.60;6.23;;;3.00;99.90;;;;;;5040165;28;20238;-79
2023/01/24 10:23:19;;;;;;;8.43;6.43;;;3.00;99.90;;;;;;5040880;28;20220;-79
2023/01/24 10:25:51;;;;;;;10.67;6.70;;;3.00;99.90;;;;;;5037635;28;20230;-79
2023/01/24 10:28:23;;;;;;;11.63;6.30;;;3.00;99.90;;;;;;5021383;28;20236;-79
2023/01/24 10:30:57;;;;;;;9.33;6.30;;;3.00;99.90;;;;;;5043796;28;20227;-79
2023/01/24 10:33:30;;;;;;;9.77;7.17;;;3.00;99.90;;;;;;5041485;28;20235;-79
2023/01/24 10:35:59;;;;;;;10.47;7.13;;;2.90;99.90;;;;;;5017341;28;20229;-80
2023/01/24 10:38:29;;;;;;;10.70;7.30;;;2.90;99.90;;;;;;5041340;28;20236;-80
2023/01/24 10:41:01;;;;;;;9.17;6.97;;;3.00;99.90;;;;;;5041072;28;20589;-80
2023/01/24 10:43:32;;;;;;;10.63;7.50;;;3.00;99.90;;;;;;5042739;28;20255;-79
2023/01/24 10:46:15;;;;;;;10.07;7.57;;;3.00;99.90;;;;;;5040016;28;20223;-78
2023/01/24 10:48:49;;;;;;;9.50;7.13;;;3.10;99.90;;;;;;5029960;28;20814;-79
2023/01/24 10:51:18;;;;;;;8.87;6.80;;;3.10;99.90;;;;;;5038250;28;20222;-79
2023/01/24 10:53:47;;;;;;;10.07;6.90;;;3.10;99.90;;;;;;5041418;28;20224;-80
2023/01/24 10:56:15;;;;;;;9.70;6.70;;;3.20;99.90;;;;;;5043804;28;20216;-80
2023/01/24 10:58:44;;;;;;;10.90;6.97;;;3.30;99.90;;;;;;5026911;28;20896;-80
2023/01/24 11:01:20;;;;;;;12.10;7.97;;;3.30;99.90;;;;;;5030218;28;20304;-81
2023/01/24 11:03:49;;;;;;;10.03;7.27;;;3.30;99.90;;;;;;5043548;28;20285;-81
2023/01/24 11:06:33;;;;;;;15.77;8.80;;;3.40;99.90;;;;;;5044159;28;20213;-81
2023/01/24 11:09:09;;;;;;;8.53;6.13;;;3.40;99.90;;;;;;5042119;28;20716;-80
2023/01/24 11:11:41;;;;;;;8.43;6.27;;;3.40;99.90;;;;;;5044762;28;20697;-82
2023/01/24 11:14:13;;;;;;;8.80;6.23;;;3.40;99.90;;;;;;5044686;28;20224;-79
2023/01/24 11:16:43;;;;;;;9.77;6.30;;;3.40;99.90;;;;;;5045160;28;20244;-80
2023/01/24 11:19:26;;;;;;;8.23;6.10;;;3.30;99.90;;;;;;5044530;28;20252;-79
2023/01/24 11:21:54;;;;;;;8.00;6.10;;;3.20;99.90;;;;;;5044040;28;20233;-79
2023/01/24 11:24:22;;;;;;;7.73;6.23;;;3.20;99.90;;;;;;5059222;28;20228;-79
2023/01/24 11:26:56;;;;;;;10.43;6.57;;;3.10;99.90;;;;;;5044488;28;20304;-78
2023/01/24 11:29:23;;;;;;;10.17;6.90;;;3.10;99.90;;;;;;5040047;28;20325;-80
2023/01/24 11:31:54;;;;;;;7.57;6.40;;;3.10;99.90;;;;;;5022959;28;20221;-79
2023/01/24 11:34:41;;;;;;;9.83;6.43;;;3.10;99.90;;;;;;5028469;28;20584;-79
2023/01/24 11:37:23;;;;;;;8.43;5.87;;;3.10;99.90;;;;;;5026469;28;20817;-79
2023/01/24 11:39:59;;;;;;;8.17;6.07;;;3.10;99.90;;;;;;5043896;28;20238;-79
2023/01/24 11:42:35;;;;;;;8.10;6.27;;;3.10;99.90;;;;;;5045288;28;20739;-79
2023/01/24 11:45:25;;;;;;;9.30;6.47;;;3.20;99.90;;;;;;5043362;28;20260;-84
2023/01/24 11:48:07;;;;;;;8.37;7.20;;;3.20;99.90;;;;;;5024555;28;20268;-83
2023/01/24 11:50:41;;;;;;;12.67;8.60;;;3.30;99.90;;;;;;5045594;28;20812;-82
2023/01/24 11:53:26;;;;;;;8.30;6.50;;;3.30;99.90;;;;;;5030567;28;20230;-83
2023/01/24 11:56:04;;;;;;;8.87;6.20;;;3.30;99.90;;;;;;5039162;28;20228;-83
2023/01/24 11:58:45;;;;;;;7.93;6.97;;;3.30;99.90;;;;;;5039832;28;20224;-82
2023/01/24 12:01:20;;;;;;;8.73;6.53;;;3.30;99.90;;;;;;5047231;28;20253;-81
2023/01/24 12:04:01;;;;;;;7.50;6.57;;;3.30;99.90;;;;;;5039565;28;20224;-83
2023/01/24 12:06:37;;;;;;;8.20;6.37;;;3.30;99.90;;;;;;5024545;28;20314;-82
2023/01/24 12:09:14;;;;;;;9.00;6.73;;;3.30;99.90;;;;;;5048229;28;20215;-84
2023/01/24 12:11:49;;;;;;;9.03;6.77;;;3.30;99.90;;;;;;5044333;28;20223;-83
2023/01/24 12:14:38;;;;;;;7.93;6.40;;;3.30;99.90;;;;;;5045479;28;20234;-82
2023/01/24 12:17:14;;;;;;;10.77;7.30;;;3.30;99.90;;;;;;5002940;28;20236;-82
2023/01/24 12:19:53;;;;;;;9.60;7.00;;;3.30;99.90;;;;;;5030919;28;20754;-82
2023/01/24 12:22:23;;;;;;;9.43;7.20;;;3.30;99.90;;;;;;5044969;28;20221;-82
2023/01/24 12:24:55;;;;;;;8.73;7.33;;;3.30;99.90;;;;;;5029961;28;20216;-82
2023/01/24 12:27:31;;;;;;;9.93;7.17;;;3.30;99.90;;;;;;5027924;28;20228;-84
2023/01/24 12:30:02;;;;;;;10.90;7.70;;;3.20;99.90;;;;;;5048877;28;20224;-84
2023/01/24 12:32:35;;;;;;;9.30;7.10;;;3.30;99.90;;;;;;5035994;28;20231;-82
2023/01/24 12:35:09;;;;;;;9.07;7.07;;;3.30;99.90;;;;;;5042286;28;20227;-84
2023/01/24 12:37:43;;;;;;;8.13;6.63;;;3.30;99.90;;;;;;5028165;28;20239;-83
2023/01/24 12:40:22;;;;;;;8.80;6.60;;;3.30;99.90;;;;;;5047279;28;20228;-83
2023/01/24 12:43:04;;;;;;;10.00;7.63;;;3.30;99.90;;;;;;5043931;28;20226;-82
2023/01/24 12:45:38;;;;;;;10.20;7.70;;;3.30;99.90;;;;;;5046945;28;20224;-82
2023/01/24 12:48:13;;;;;;;10.40;7.47;;;3.30;99.90;;;;;;5030490;28;20235;-83
2023/01/24 12:50:44;;;;;;;9.33;7.17;;;3.30;99.90;;;;;;5042032;28;20223;-82
2023/01/24 12:53:16;;;;;;;10.73;7.20;;;3.30;99.90;;;;;;5047680;28;20224;-82
2023/01/24 12:55:53;;;;;;;9.63;7.63;;;3.30;99.90;;;;;;5024593;28;21594;-83
2023/01/24 12:58:27;;;;;;;9.93;7.17;;;3.30;99.90;;;;;;5044029;28;20236;-82
2023/01/24 13:01:04;;;;;;;10.60;7.43;;;3.20;99.90;;;;;;5029897;28;20252;-83
2023/01/24 13:04:01;;;;;;;10.10;7.43;;;3.20;99.90;;;;;;5042158;28;20250;-82
2023/01/24 13:06:37;;;;;;;10.17;8.17;;;3.10;99.90;;;;;;5044802;28;20307;-82
2023/01/24 13:09:14;;;;;;;10.63;8.10;;;3.10;99.90;;;;;;5044797;28;20228;-85
2023/01/24 13:11:45;;;;;;;9.90;7.17;;;3.00;99.90;;;;;;5040282;28;20307;-87
2023/01/24 13:14:19;;;;;;;10.03;7.73;;;2.90;99.90;;;;;;5042676;28;20754;-82
2023/01/24 13:17:11;;;;;;;8.37;7.03;;;2.90;99.90;;;;;;5041290;28;20221;-79
2023/01/24 13:19:54;;;;;;;10.20;8.00;;;2.80;99.90;;;;;;5031022;28;20317;-82
2023/01/24 13:22:36;;;;;;;11.23;7.30;;;2.80;99.90;;;;;;5029094;28;20225;-82
2023/01/24 13:25:28;;;;;;;10.93;7.97;;;2.70;99.90;;;;;;5040400;28;20234;-82
2023/01/24 13:28:05;;;;;;;11.03;8.30;;;2.70;99.90;;;;;;5025307;28;20235;-82
2023/01/24 13:30:44;;;;;;;10.00;8.17;;;2.70;99.90;;;;;;5023573;28;20585;-82
2023/01/24 13:33:14;;;;;;;9.67;7.43;;;2.70;99.90;;;;;;5041285;28;20223;-82
2023/01/24 13:35:48;;;;;;;14.80;10.33;;;2.70;99.90;;;;;;5040434;28;20230;-82
2023/01/24 13:38:20;;;;;;;11.70;9.03;;;2.70;99.90;;;;;;5031374;28;20235;-81
2023/01/24 13:40:59;;;;;;;11.60;8.93;;;2.70;99.90;;;;;;5039556;28;20237;-83
2023/01/24 13:43:54;;;;;;;12.10;8.57;;;2.70;99.90;;;;;;5034814;28;20223;-84
2023/01/24 13:46:59;;;;;;;12.20;8.40;;;2.80;99.90;;;;;;5040553;28;20219;-81